createdAt,value
2018-10-06T00:00:17.083Z,8.00
2018-10-06T00:01:17.063Z,8.50
2018-10-06T00:02:17.056Z,7.60
2018-10-06T00:03:17.067Z,8.70
2018-10-06T00:04:17.033Z,7.70
2018-10-06T00:05:17.013Z,8.00
2018-10-06T00:06:17.081Z,8.00
2018-10-06T00:07:16.992Z,8.60
2018-10-06T00:08:16.993Z,8.00
2018-10-06T00:09:16.979Z,8.20
2018-10-06T00:10:16.962Z,8.00
2018-10-06T00:11:16.985Z,8.30
2018-10-06T00:12:16.962Z,8.20
2018-10-06T00:13:16.938Z,7.80
2018-10-06T00:14:16.918Z,7.70
2018-10-06T00:15:16.904Z,7.70
2018-10-06T00:16:16.909Z,7.90
2018-10-06T00:17:16.919Z,8.20
2018-10-06T00:18:16.882Z,7.90
2018-10-06T00:19:16.860Z,8.40
2018-10-06T00:20:16.845Z,8.30
2018-10-06T00:21:16.873Z,8.30
2018-10-06T00:22:16.936Z,7.80
2018-10-06T00:23:16.821Z,8.10
2018-10-06T00:24:16.837Z,8.30
2018-10-06T00:25:16.790Z,8.00
2018-10-06T00:26:16.777Z,8.10
2018-10-06T00:27:16.928Z,8.50
2018-10-06T00:28:16.803Z,8.40
2018-10-06T00:29:16.745Z,8.10
2018-10-06T00:30:16.742Z,8.30
2018-10-06T00:31:16.763Z,7.90
2018-10-06T00:32:16.758Z,8.20
2018-10-06T00:33:16.714Z,8.30
2018-10-06T00:34:16.694Z,8.80
2018-10-06T00:35:16.683Z,8.60
2018-10-06T00:36:16.687Z,9.10
2018-10-06T00:37:16.795Z,8.80
2018-10-06T00:38:16.652Z,8.80
2018-10-06T00:39:16.638Z,8.50
2018-10-06T00:40:16.632Z,8.40
2018-10-06T00:41:16.613Z,8.00
2018-10-06T00:42:16.647Z,8.30
2018-10-06T00:43:16.596Z,9.00
2018-10-06T00:44:16.597Z,8.30
2018-10-06T00:45:16.583Z,8.80
2018-10-06T00:46:16.569Z,8.80
2018-10-06T00:47:16.645Z,8.30
2018-10-06T00:48:16.540Z,8.50
2018-10-06T00:49:16.536Z,9.00
2018-10-06T00:50:16.536Z,9.00
2018-10-06T00:51:16.533Z,8.50
2018-10-06T00:52:16.504Z,8.70
2018-10-06T00:53:16.486Z,8.70
2018-10-06T00:54:16.471Z,9.20
2018-10-06T00:55:16.498Z,9.20
2018-10-06T00:56:16.489Z,8.50
2018-10-06T00:57:16.476Z,9.00
2018-10-06T00:58:16.435Z,8.50
2018-10-06T00:59:16.418Z,9.60
2018-10-06T01:00:16.415Z,8.80
2018-10-06T01:01:16.395Z,8.90
2018-10-06T01:02:16.435Z,8.80
2018-10-06T01:03:16.371Z,9.30
2018-10-06T01:04:16.360Z,7.90
2018-10-06T01:05:16.386Z,8.50
2018-10-06T01:06:16.365Z,9.10
2018-10-06T01:07:16.326Z,9.00
2018-10-06T01:08:16.340Z,8.80
2018-10-06T01:09:16.327Z,9.40
2018-10-06T01:10:16.293Z,9.70
2018-10-06T01:11:16.286Z,8.80
2018-10-06T01:12:16.279Z,8.30
2018-10-06T01:13:16.289Z,9.30
2018-10-06T01:14:16.262Z,9.20
2018-10-06T01:15:16.234Z,8.60
2018-10-06T01:16:16.265Z,9.10
2018-10-06T01:17:16.213Z,8.70
2018-10-06T01:18:16.234Z,8.80
2018-10-06T01:19:16.200Z,9.40
2018-10-06T01:20:16.198Z,9.00
2018-10-06T01:21:16.203Z,8.40
2018-10-06T01:22:16.162Z,9.30
2018-10-06T01:23:16.190Z,8.90
2018-10-06T01:24:16.136Z,8.30
2018-10-06T01:25:16.131Z,8.90
2018-10-06T01:26:16.157Z,8.70
2018-10-06T01:27:16.141Z,9.50
2018-10-06T01:28:16.095Z,8.80
2018-10-06T01:29:16.088Z,8.90
2018-10-06T01:30:16.077Z,10.00
2018-10-06T01:31:16.062Z,8.70
2018-10-06T01:32:16.093Z,9.30
2018-10-06T01:33:16.044Z,9.40
2018-10-06T01:34:16.038Z,8.40
2018-10-06T01:35:16.040Z,8.80
2018-10-06T01:36:16.004Z,8.80
2018-10-06T01:37:15.999Z,9.20
2018-10-06T01:38:15.995Z,9.60
2018-10-06T01:39:15.969Z,9.00
2018-10-06T01:40:15.983Z,8.80
2018-10-06T01:41:15.995Z,8.20
2018-10-06T01:42:15.942Z,8.30
2018-10-06T01:43:15.941Z,8.80
2018-10-06T01:44:15.928Z,8.90
2018-10-06T01:45:15.930Z,10.00
2018-10-06T01:46:15.897Z,8.90
2018-10-06T01:47:15.880Z,9.00
2018-10-06T01:48:15.868Z,9.00
2018-10-06T01:49:15.861Z,8.80
2018-10-06T01:50:15.896Z,8.90
2018-10-06T01:51:15.835Z,8.50
2018-10-06T01:52:15.828Z,9.00
2018-10-06T01:53:15.857Z,8.80
2018-10-06T01:54:15.816Z,9.40
2018-10-06T01:55:15.794Z,9.70
2018-10-06T01:56:15.790Z,8.90
2018-10-06T01:57:15.809Z,9.60
2018-10-06T01:58:15.858Z,9.80
2018-10-06T01:59:15.776Z,9.30
2018-10-06T02:00:15.733Z,9.80
2018-10-06T02:01:15.726Z,9.70
2018-10-06T02:02:15.718Z,10.00
2018-10-06T02:03:15.745Z,9.80
2018-10-06T02:04:15.690Z,10.10
2018-10-06T02:05:15.683Z,10.10
2018-10-06T02:06:15.717Z,10.60
2018-10-06T02:07:15.690Z,9.50
2018-10-06T02:08:15.668Z,10.40
2018-10-06T02:09:15.645Z,9.60
2018-10-06T02:10:15.626Z,9.40
2018-10-06T02:11:15.652Z,8.90
2018-10-06T02:12:15.604Z,8.70
2018-10-06T02:13:15.620Z,9.40
2018-10-06T02:14:15.611Z,9.30
2018-10-06T02:15:15.601Z,9.80
2018-10-06T02:16:15.561Z,9.60
2018-10-06T02:17:15.583Z,9.80
2018-10-06T02:18:15.536Z,9.70
2018-10-06T02:19:15.527Z,9.60
2018-10-06T02:20:15.518Z,9.30
2018-10-06T02:21:15.503Z,9.40
2018-10-06T02:22:15.595Z,9.70
2018-10-06T02:23:15.524Z,10.20
2018-10-06T02:24:15.595Z,8.90
2018-10-06T02:25:15.461Z,10.00
2018-10-06T02:26:15.469Z,10.10
2018-10-06T02:27:15.449Z,9.10
2018-10-06T02:28:15.422Z,9.60
2018-10-06T02:29:15.442Z,10.20
2018-10-06T02:30:15.547Z,9.60
2018-10-06T02:31:15.397Z,10.70
2018-10-06T02:32:15.384Z,10.40
2018-10-06T02:33:15.369Z,9.90
2018-10-06T02:34:15.393Z,10.10
2018-10-06T02:35:15.347Z,10.60
2018-10-06T02:36:15.337Z,10.90
2018-10-06T02:37:15.374Z,11.40
2018-10-06T02:38:15.333Z,10.50
2018-10-06T02:39:15.302Z,10.40
2018-10-06T02:40:15.331Z,10.80
2018-10-06T02:41:15.286Z,10.10
2018-10-06T02:42:15.277Z,11.60
2018-10-06T02:43:15.271Z,11.20
2018-10-06T02:44:15.244Z,11.30
2018-10-06T02:45:15.263Z,10.20
2018-10-06T02:46:15.279Z,11.00
2018-10-06T02:47:15.212Z,10.90
2018-10-06T02:48:15.204Z,11.00
2018-10-06T02:49:15.233Z,11.40
2018-10-06T02:50:15.182Z,11.20
2018-10-06T02:51:15.171Z,10.70
2018-10-06T02:52:15.251Z,10.80
2018-10-06T02:53:15.149Z,9.70
2018-10-06T02:54:15.133Z,10.70
2018-10-06T02:55:15.146Z,10.00
2018-10-06T02:56:15.112Z,10.40
2018-10-06T02:57:15.139Z,10.60
2018-10-06T02:58:15.090Z,11.40
2018-10-06T02:59:15.088Z,10.80
2018-10-06T03:00:15.079Z,10.10
2018-10-06T03:01:15.080Z,11.30
2018-10-06T03:02:15.094Z,9.90
2018-10-06T03:03:15.041Z,11.60
2018-10-06T03:04:15.032Z,10.60
2018-10-06T03:05:15.016Z,10.70
2018-10-06T03:06:15.034Z,10.80
2018-10-06T03:07:15.012Z,11.20
2018-10-06T03:08:14.983Z,10.50
2018-10-06T03:09:14.971Z,10.70
2018-10-06T03:10:14.958Z,10.60
2018-10-06T03:11:14.991Z,11.60
2018-10-06T03:12:14.944Z,10.80
2018-10-06T03:13:14.957Z,10.90
2018-10-06T03:14:14.920Z,10.90
2018-10-06T03:15:14.902Z,10.80
2018-10-06T03:16:14.922Z,11.40
2018-10-06T03:17:14.897Z,10.90
2018-10-06T03:18:14.885Z,10.50
2018-10-06T03:19:14.869Z,10.40
2018-10-06T03:20:14.881Z,11.60
2018-10-06T03:21:14.860Z,11.40
2018-10-06T03:22:14.827Z,11.70
2018-10-06T03:23:14.868Z,10.70
2018-10-06T03:24:14.820Z,10.80
2018-10-06T03:25:14.800Z,10.90
2018-10-06T03:26:14.801Z,10.20
2018-10-06T03:27:14.781Z,11.10
2018-10-06T03:28:14.802Z,10.70
2018-10-06T03:29:14.773Z,10.80
2018-10-06T03:30:14.778Z,10.90
2018-10-06T03:31:14.762Z,10.60
2018-10-06T03:32:14.730Z,10.10
2018-10-06T03:33:14.706Z,10.90
2018-10-06T03:34:14.701Z,11.20
2018-10-06T03:35:14.714Z,10.40
2018-10-06T03:36:14.686Z,10.70
2018-10-06T03:37:14.663Z,10.70
2018-10-06T03:38:14.674Z,10.40
2018-10-06T03:39:14.673Z,10.40
2018-10-06T03:40:14.636Z,10.70
2018-10-06T03:41:14.618Z,10.00
2018-10-06T03:42:14.621Z,11.20
2018-10-06T03:43:14.629Z,11.10
2018-10-06T03:44:14.625Z,11.00
2018-10-06T03:45:15.281Z,10.60
2018-10-06T03:46:14.590Z,11.70
2018-10-06T03:47:14.596Z,10.90
2018-10-06T03:48:14.574Z,11.00
2018-10-06T03:49:14.535Z,10.90
2018-10-06T03:50:14.528Z,10.60
2018-10-06T03:51:14.512Z,10.30
2018-10-06T03:52:14.548Z,11.60
2018-10-06T03:53:14.531Z,10.50
2018-10-06T03:54:14.474Z,10.30
2018-10-06T03:55:14.464Z,10.90
2018-10-06T03:56:14.452Z,10.70
2018-10-06T03:57:14.448Z,10.20
2018-10-06T03:58:14.468Z,10.40
2018-10-06T03:59:14.456Z,10.50
2018-10-06T04:00:14.414Z,16.50
2018-10-06T04:01:14.403Z,29.70
2018-10-06T04:02:14.424Z,19.10
2018-10-06T04:03:14.378Z,25.60
2018-10-06T04:04:14.407Z,17.00
2018-10-06T04:05:14.398Z,10.70
2018-10-06T04:06:14.345Z,11.10
2018-10-06T04:07:14.372Z,10.80
2018-10-06T04:08:14.358Z,10.80
2018-10-06T04:09:14.312Z,10.30
2018-10-06T04:10:14.303Z,10.10
2018-10-06T04:11:14.297Z,11.10
2018-10-06T04:12:14.317Z,10.80
2018-10-06T04:13:14.271Z,10.90
2018-10-06T04:14:14.257Z,11.30
2018-10-06T04:15:14.242Z,11.00
2018-10-06T04:16:14.229Z,10.60
2018-10-06T04:17:14.256Z,10.30
2018-10-06T04:18:14.212Z,10.80
2018-10-06T04:19:14.209Z,11.30
2018-10-06T04:20:14.239Z,11.30
2018-10-06T04:21:14.182Z,11.40
2018-10-06T04:22:14.210Z,11.30
2018-10-06T04:23:14.180Z,10.80
2018-10-06T04:24:14.172Z,11.60
2018-10-06T04:25:14.161Z,10.60
2018-10-06T04:26:14.122Z,10.50
2018-10-06T04:27:14.108Z,11.00
2018-10-06T04:28:14.170Z,9.50
2018-10-06T04:29:14.133Z,10.80
2018-10-06T04:30:14.080Z,10.60
2018-10-06T04:31:14.064Z,10.70
2018-10-06T04:32:14.052Z,10.50
2018-10-06T04:33:14.050Z,10.80
2018-10-06T04:34:14.067Z,10.70
2018-10-06T04:35:14.057Z,10.90
2018-10-06T04:36:14.012Z,10.70
2018-10-06T04:37:14.027Z,11.50
2018-10-06T04:38:13.994Z,11.00
2018-10-06T04:39:13.992Z,10.90
2018-10-06T04:40:13.964Z,10.70
2018-10-06T04:41:13.971Z,11.10
2018-10-06T04:42:13.987Z,11.30
2018-10-06T04:43:13.945Z,10.80
2018-10-06T04:44:13.927Z,11.80
2018-10-06T04:45:13.910Z,11.80
2018-10-06T04:46:13.904Z,11.80
2018-10-06T04:47:13.923Z,11.10
2018-10-06T04:48:13.884Z,11.10
2018-10-06T04:49:13.895Z,10.50
2018-10-06T04:50:13.856Z,11.40
2018-10-06T04:51:13.849Z,10.60
2018-10-06T04:52:13.849Z,11.20
2018-10-06T04:53:13.960Z,11.40
2018-10-06T04:54:13.822Z,11.00
2018-10-06T04:55:13.796Z,10.80
2018-10-06T04:56:13.792Z,11.10
2018-10-06T04:57:13.782Z,10.60
2018-10-06T04:58:13.802Z,10.70
2018-10-06T04:59:13.776Z,11.70
2018-10-06T05:00:13.769Z,11.40
2018-10-06T05:01:13.775Z,10.60
2018-10-06T05:02:13.728Z,11.40
2018-10-06T05:03:13.794Z,11.10
2018-10-06T05:04:13.704Z,11.30
2018-10-06T05:05:13.693Z,11.30
2018-10-06T05:06:13.713Z,11.10
2018-10-06T05:07:13.712Z,11.30
2018-10-06T05:08:13.696Z,11.60
2018-10-06T05:09:13.697Z,11.30
2018-10-06T05:10:13.644Z,10.90
2018-10-06T05:11:13.623Z,10.60
2018-10-06T05:12:13.620Z,10.80
2018-10-06T05:13:13.602Z,10.50
2018-10-06T05:14:13.625Z,11.00
2018-10-06T05:15:13.622Z,10.90
2018-10-06T05:16:13.584Z,10.60
2018-10-06T05:17:13.602Z,10.70
2018-10-06T05:18:13.549Z,9.70
2018-10-06T05:19:13.580Z,9.90
2018-10-06T05:20:13.528Z,9.60
2018-10-06T05:21:13.542Z,10.50
2018-10-06T05:22:13.501Z,10.50
2018-10-06T05:23:13.496Z,10.70
2018-10-06T05:24:13.593Z,10.10
2018-10-06T05:25:13.507Z,10.90
2018-10-06T05:26:13.466Z,10.80
2018-10-06T05:27:13.458Z,10.70
2018-10-06T05:28:13.446Z,10.50
2018-10-06T05:29:13.431Z,10.00
2018-10-06T05:30:13.467Z,9.90
2018-10-06T05:31:13.412Z,10.40
2018-10-06T05:32:13.403Z,10.60
2018-10-06T05:33:13.387Z,10.70
2018-10-06T05:34:13.410Z,11.60
2018-10-06T05:35:13.398Z,9.60
2018-10-06T05:36:13.395Z,9.80
2018-10-06T05:37:13.370Z,9.70
2018-10-06T05:38:13.339Z,9.10
2018-10-06T05:39:13.326Z,9.50
2018-10-06T05:40:13.411Z,9.60
2018-10-06T05:41:13.328Z,10.60
2018-10-06T05:42:13.286Z,10.10
2018-10-06T05:43:13.278Z,10.30
2018-10-06T05:44:13.270Z,10.00
2018-10-06T05:45:13.299Z,12.30
2018-10-06T05:46:13.266Z,72.00
2018-10-06T05:47:13.233Z,17.10
2018-10-06T05:48:13.222Z,14.80
2018-10-06T05:49:13.215Z,10.70
2018-10-06T05:50:13.244Z,11.10
2018-10-06T05:51:13.189Z,9.80
2018-10-06T05:52:13.182Z,10.30
2018-10-06T05:53:13.166Z,10.90
2018-10-06T05:54:13.159Z,10.00
2018-10-06T05:55:13.196Z,10.40
2018-10-06T05:56:13.159Z,9.90
2018-10-06T05:57:13.129Z,9.40
2018-10-06T05:58:13.112Z,9.70
2018-10-06T05:59:13.144Z,10.10
2018-10-06T06:00:13.136Z,10.10
2018-10-06T06:01:13.084Z,10.30
2018-10-06T06:02:13.072Z,10.20
2018-10-06T06:03:13.058Z,10.00
2018-10-06T06:04:13.083Z,9.70
2018-10-06T06:05:13.074Z,11.10
2018-10-06T06:06:13.035Z,10.50
2018-10-06T06:07:13.055Z,10.30
2018-10-06T06:08:13.015Z,10.00
2018-10-06T06:09:12.995Z,11.40
2018-10-06T06:10:12.982Z,10.80
2018-10-06T06:11:13.003Z,11.40
2018-10-06T06:12:12.963Z,18.80
2018-10-06T06:13:12.948Z,12.90
2018-10-06T06:14:12.944Z,38.70
2018-10-06T06:15:12.963Z,47.10
2018-10-06T06:16:12.923Z,13.20
2018-10-06T06:17:12.906Z,11.10
2018-10-06T06:18:12.900Z,30.20
2018-10-06T06:19:12.882Z,16.10
2018-10-06T06:20:12.945Z,17.50
2018-10-06T06:21:12.859Z,13.80
2018-10-06T06:22:12.874Z,11.00
2018-10-06T06:23:12.848Z,9.70
2018-10-06T06:24:12.864Z,9.60
2018-10-06T06:25:12.818Z,10.30
2018-10-06T06:26:12.817Z,10.00
2018-10-06T06:27:12.801Z,9.30
2018-10-06T06:28:12.785Z,9.30
2018-10-06T06:29:12.817Z,8.80
2018-10-06T06:30:12.766Z,9.00
2018-10-06T06:31:12.796Z,9.30
2018-10-06T06:32:12.816Z,9.10
2018-10-06T06:33:12.761Z,8.60
2018-10-06T06:34:12.767Z,8.70
2018-10-06T06:35:12.708Z,9.00
2018-10-06T06:36:12.810Z,8.60
2018-10-06T06:37:12.693Z,7.80
2018-10-06T06:38:12.689Z,7.70
2018-10-06T06:39:12.666Z,8.10
2018-10-06T06:40:12.694Z,8.10
2018-10-06T06:41:12.644Z,7.70
2018-10-06T06:42:12.680Z,7.40
2018-10-06T06:43:12.620Z,7.80
2018-10-06T06:44:12.745Z,7.50
2018-10-06T06:45:12.621Z,7.40
2018-10-06T06:46:12.585Z,7.30
2018-10-06T06:47:12.614Z,7.40
2018-10-06T06:48:12.572Z,7.50
2018-10-06T06:49:12.552Z,7.00
2018-10-06T06:50:12.599Z,7.20
2018-10-06T06:51:12.533Z,6.80
2018-10-06T06:52:12.592Z,6.80
2018-10-06T06:53:12.514Z,7.10
2018-10-06T06:54:12.503Z,6.90
2018-10-06T06:55:12.486Z,6.50
2018-10-06T06:56:12.527Z,24.30
2018-10-06T06:57:12.501Z,8.90
2018-10-06T06:58:12.452Z,105.00
2018-10-06T06:59:12.444Z,45.90
2018-10-06T07:00:12.476Z,31.90
2018-10-06T07:01:12.425Z,18.00
2018-10-06T07:02:12.461Z,11.20
2018-10-06T07:03:12.400Z,8.50
2018-10-06T07:04:12.442Z,8.30
2018-10-06T07:05:12.378Z,6.80
2018-10-06T07:06:12.415Z,11.60
2018-10-06T07:07:12.355Z,15.60
2018-10-06T07:08:12.348Z,14.90
2018-10-06T07:09:12.330Z,44.90
2018-10-06T07:10:12.327Z,20.90
2018-10-06T07:11:12.352Z,16.40
2018-10-06T07:12:12.301Z,10.20
2018-10-06T07:13:12.316Z,8.00
2018-10-06T07:14:12.282Z,6.40
2018-10-06T07:15:12.277Z,6.80
2018-10-06T07:16:12.283Z,6.40
2018-10-06T07:17:12.286Z,6.40
2018-10-06T07:18:12.249Z,6.50
2018-10-06T07:19:12.294Z,6.40
2018-10-06T07:20:12.235Z,5.90
2018-10-06T07:21:12.205Z,6.30
2018-10-06T07:22:12.192Z,5.70
2018-10-06T07:23:12.221Z,5.70
2018-10-06T07:24:12.176Z,5.90
2018-10-06T07:25:12.200Z,5.50
2018-10-06T07:26:12.148Z,5.50
2018-10-06T07:27:12.140Z,5.70
2018-10-06T07:28:12.157Z,5.50
2018-10-06T07:29:12.115Z,5.50
2018-10-06T07:30:12.140Z,5.30
2018-10-06T07:31:12.125Z,5.90
2018-10-06T07:32:12.212Z,6.20
2018-10-06T07:33:12.078Z,5.80
2018-10-06T07:34:12.054Z,5.50
2018-10-06T07:35:12.046Z,5.80
2018-10-06T07:36:12.032Z,4.90
2018-10-06T07:37:12.059Z,6.10
2018-10-06T07:38:12.048Z,5.10
2018-10-06T07:39:12.005Z,4.90
2018-10-06T07:40:12.031Z,5.20
2018-10-06T07:41:11.979Z,4.80
2018-10-06T07:42:11.971Z,5.00
2018-10-06T07:43:11.966Z,4.90
2018-10-06T07:44:11.957Z,4.90
2018-10-06T07:45:11.977Z,5.30
2018-10-06T07:46:11.923Z,5.30
2018-10-06T07:47:11.925Z,4.90
2018-10-06T07:48:11.936Z,5.70
2018-10-06T07:49:11.898Z,4.70
2018-10-06T07:50:11.886Z,4.60
2018-10-06T07:51:11.868Z,5.50
2018-10-06T07:52:11.872Z,5.10
2018-10-06T07:53:11.952Z,5.10
2018-10-06T07:54:11.876Z,5.00
2018-10-06T07:55:11.826Z,4.60
2018-10-06T07:56:11.863Z,4.40
2018-10-06T07:57:11.808Z,4.70
2018-10-06T07:58:11.802Z,4.60
2018-10-06T07:59:11.945Z,4.70
2018-10-06T08:00:11.786Z,4.80
2018-10-06T08:01:11.819Z,4.60
2018-10-06T08:02:11.754Z,5.10
2018-10-06T08:03:11.748Z,4.80
2018-10-06T08:04:11.736Z,5.00
2018-10-06T08:05:11.717Z,4.70
2018-10-06T08:06:11.781Z,4.50
2018-10-06T08:07:11.691Z,4.30
2018-10-06T08:08:11.695Z,4.10
2018-10-06T08:09:11.676Z,4.50
2018-10-06T08:10:11.664Z,4.30
2018-10-06T08:11:11.693Z,4.40
2018-10-06T08:12:11.633Z,4.40
2018-10-06T08:13:11.662Z,4.60
2018-10-06T08:14:11.611Z,4.80
2018-10-06T08:15:11.612Z,4.50
2018-10-06T08:16:11.613Z,4.20
2018-10-06T08:17:11.583Z,4.50
2018-10-06T08:18:11.608Z,4.40
2018-10-06T08:19:11.565Z,4.20
2018-10-06T08:20:11.554Z,4.80
2018-10-06T08:21:11.586Z,4.10
2018-10-06T08:22:11.532Z,4.20
2018-10-06T08:23:11.553Z,4.20
2018-10-06T08:24:11.521Z,4.60
2018-10-06T08:25:11.504Z,4.40
2018-10-06T08:26:11.521Z,4.30
2018-10-06T08:27:11.512Z,4.20
2018-10-06T08:28:11.575Z,4.10
2018-10-06T08:29:11.471Z,4.60
2018-10-06T08:30:11.473Z,4.50
2018-10-06T08:31:12.408Z,4.00
2018-10-06T08:32:11.419Z,4.50
2018-10-06T08:33:11.473Z,4.60
2018-10-06T08:34:11.417Z,4.20
2018-10-06T08:35:11.383Z,4.40
2018-10-06T08:36:11.405Z,4.10
2018-10-06T08:37:11.374Z,3.60
2018-10-06T08:38:11.370Z,4.30
2018-10-06T08:39:11.509Z,4.10
2018-10-06T08:40:11.374Z,4.20
2018-10-06T08:41:11.384Z,3.90
2018-10-06T08:42:11.446Z,4.30
2018-10-06T08:43:11.355Z,3.90
2018-10-06T08:44:11.331Z,3.80
2018-10-06T08:45:11.275Z,4.60
2018-10-06T08:46:11.263Z,4.30
2018-10-06T08:47:11.328Z,3.90
2018-10-06T08:48:11.256Z,4.40
2018-10-06T08:49:11.252Z,4.50
2018-10-06T08:50:11.251Z,4.30
2018-10-06T08:51:11.254Z,4.70
2018-10-06T08:52:11.193Z,4.40
2018-10-06T08:53:11.190Z,4.30
2018-10-06T08:54:11.178Z,4.30
2018-10-06T08:55:11.205Z,4.20
2018-10-06T08:56:11.211Z,4.40
2018-10-06T08:57:11.141Z,3.90
2018-10-06T08:58:11.192Z,3.90
2018-10-06T08:59:11.154Z,4.30
2018-10-06T09:00:11.136Z,4.10
2018-10-06T09:01:11.098Z,4.20
2018-10-06T09:02:11.087Z,4.20
2018-10-06T09:03:11.083Z,4.10
2018-10-06T09:04:11.120Z,4.10
2018-10-06T09:05:11.094Z,4.50
2018-10-06T09:06:11.043Z,4.50
2018-10-06T09:07:11.029Z,4.30
2018-10-06T09:08:11.017Z,4.20
2018-10-06T09:09:11.004Z,4.30
2018-10-06T09:10:11.026Z,4.20
2018-10-06T09:11:10.980Z,4.10
2018-10-06T09:12:10.974Z,4.10
2018-10-06T09:13:10.963Z,4.00
2018-10-06T09:14:10.956Z,4.20
2018-10-06T09:15:10.986Z,4.70
2018-10-06T09:16:10.935Z,4.10
2018-10-06T09:17:10.914Z,3.80
2018-10-06T09:18:10.914Z,4.30
2018-10-06T09:19:10.907Z,4.00
2018-10-06T09:20:10.913Z,4.10
2018-10-06T09:21:10.872Z,4.10
2018-10-06T09:22:10.920Z,4.20
2018-10-06T09:23:10.854Z,3.80
2018-10-06T09:24:10.849Z,4.20
2018-10-06T09:25:10.861Z,19.70
2018-10-06T09:26:10.817Z,88.60
2018-10-06T09:27:10.803Z,24.00
2018-10-06T09:28:10.824Z,8.10
2018-10-06T09:29:10.780Z,6.40
2018-10-06T09:30:10.805Z,4.30
2018-10-06T09:31:10.782Z,3.90
2018-10-06T09:32:10.758Z,4.40
2018-10-06T09:33:10.788Z,4.50
2018-10-06T09:34:10.738Z,4.10
2018-10-06T09:35:10.721Z,4.40
2018-10-06T09:36:10.708Z,4.30
2018-10-06T09:37:10.705Z,3.70
2018-10-06T09:38:10.721Z,3.80
2018-10-06T09:39:10.707Z,4.20
2018-10-06T09:40:10.682Z,3.90
2018-10-06T09:41:10.674Z,3.90
2018-10-06T09:42:10.813Z,4.20
2018-10-06T09:43:10.635Z,3.80
2018-10-06T09:44:10.622Z,4.00
2018-10-06T09:45:10.610Z,4.00
2018-10-06T09:46:10.602Z,4.00
2018-10-06T09:47:10.702Z,4.10
2018-10-06T09:48:10.652Z,4.10
2018-10-06T09:49:10.566Z,3.90
2018-10-06T09:50:10.582Z,4.50
2018-10-06T09:51:10.540Z,3.80
2018-10-06T09:52:10.565Z,4.20
2018-10-06T09:53:10.530Z,4.30
2018-10-06T09:54:10.512Z,4.50
2018-10-06T09:55:10.533Z,4.40
2018-10-06T09:56:10.486Z,4.10
2018-10-06T09:57:10.479Z,3.70
2018-10-06T09:58:10.466Z,4.20
2018-10-06T09:59:10.459Z,4.20
2018-10-06T10:00:10.504Z,4.30
2018-10-06T10:01:10.430Z,4.60
2018-10-06T10:02:10.462Z,13.00
2018-10-06T10:03:10.411Z,5.70
2018-10-06T10:04:10.409Z,8.10
2018-10-06T10:05:10.425Z,6.40
2018-10-06T10:06:10.378Z,10.00
2018-10-06T10:07:10.448Z,8.40
2018-10-06T10:08:10.403Z,6.70
2018-10-06T10:09:10.378Z,4.70
2018-10-06T10:10:10.332Z,5.70
2018-10-06T10:11:10.321Z,4.90
2018-10-06T10:12:10.335Z,5.00
2018-10-06T10:13:10.298Z,4.50
2018-10-06T10:14:10.330Z,4.10
2018-10-06T10:15:10.306Z,5.60
2018-10-06T10:16:10.301Z,4.70
2018-10-06T10:17:10.355Z,6.90
2018-10-06T10:18:10.529Z,5.30
2018-10-06T10:19:10.273Z,4.30
2018-10-06T10:20:10.225Z,6.10
2018-10-06T10:21:10.230Z,4.80
2018-10-06T10:22:10.334Z,4.00
2018-10-06T10:23:10.195Z,4.40
2018-10-06T10:24:10.179Z,3.80
2018-10-06T10:25:10.167Z,3.90
2018-10-06T10:26:10.182Z,4.00
2018-10-06T10:27:10.154Z,3.80
2018-10-06T10:28:10.140Z,4.00
2018-10-06T10:29:10.129Z,4.40
2018-10-06T10:30:10.115Z,4.90
2018-10-06T10:31:10.150Z,4.00
2018-10-06T10:32:10.121Z,3.70
2018-10-06T10:33:10.078Z,3.80
2018-10-06T10:34:10.361Z,4.00
2018-10-06T10:35:10.329Z,4.60
2018-10-06T10:36:10.434Z,44.10
2018-10-06T10:37:10.064Z,122.70
2018-10-06T10:38:10.037Z,96.00
2018-10-06T10:39:10.116Z,38.40
2018-10-06T10:40:10.009Z,15.30
2018-10-06T10:41:09.996Z,10.60
2018-10-06T10:42:09.985Z,5.20
2018-10-06T10:43:10.016Z,5.10
2018-10-06T10:44:09.982Z,4.40
2018-10-06T10:45:09.948Z,4.50
2018-10-06T10:46:09.983Z,4.70
2018-10-06T10:47:09.945Z,4.10
2018-10-06T10:48:09.930Z,4.40
2018-10-06T10:49:09.945Z,4.60
2018-10-06T10:50:09.895Z,4.30
2018-10-06T10:51:09.882Z,4.20
2018-10-06T10:52:09.883Z,4.20
2018-10-06T10:53:09.923Z,4.20
2018-10-06T10:54:09.849Z,4.20
2018-10-06T10:55:09.846Z,4.50
2018-10-06T10:56:09.868Z,4.10
2018-10-06T10:57:09.813Z,4.40
2018-10-06T10:58:09.840Z,4.30
2018-10-06T10:59:09.866Z,4.60
2018-10-06T11:00:09.846Z,4.50
2018-10-06T11:01:09.931Z,4.40
2018-10-06T11:02:09.759Z,4.10
2018-10-06T11:03:09.767Z,4.40
2018-10-06T11:04:09.774Z,4.00
2018-10-06T11:05:09.756Z,4.00
2018-10-06T11:06:09.718Z,4.10
2018-10-06T11:07:09.752Z,4.00
2018-10-06T11:08:09.700Z,3.90
2018-10-06T11:09:09.681Z,4.20
2018-10-06T11:10:09.673Z,4.20
2018-10-06T11:11:09.752Z,4.40
2018-10-06T11:12:09.647Z,4.40
2018-10-06T11:13:09.635Z,4.70
2018-10-06T11:14:09.626Z,4.20
2018-10-06T11:15:09.647Z,4.30
2018-10-06T11:16:09.609Z,4.20
2018-10-06T11:17:09.750Z,5.10
2018-10-06T11:18:09.612Z,4.40
2018-10-06T11:19:09.573Z,4.40
2018-10-06T11:20:09.587Z,4.60
2018-10-06T11:21:09.556Z,4.80
2018-10-06T11:22:09.536Z,4.50
2018-10-06T11:23:09.533Z,4.80
2018-10-06T11:24:09.517Z,4.60
2018-10-06T11:25:09.532Z,4.70
2018-10-06T11:26:09.495Z,4.20
2018-10-06T11:27:09.491Z,4.10
2018-10-06T11:28:09.513Z,4.30
2018-10-06T11:29:09.468Z,4.10
2018-10-06T11:30:09.450Z,4.70
2018-10-06T11:31:09.436Z,4.40
2018-10-06T11:32:09.462Z,4.30
2018-10-06T11:33:09.447Z,4.00
2018-10-06T11:34:09.440Z,4.30
2018-10-06T11:35:09.440Z,4.10
2018-10-06T11:36:09.416Z,4.30
2018-10-06T11:37:09.411Z,4.20
2018-10-06T11:38:09.437Z,3.60
2018-10-06T11:39:09.360Z,4.10
2018-10-06T11:40:09.387Z,3.90
2018-10-06T11:41:09.348Z,3.60
2018-10-06T11:42:09.322Z,3.90
2018-10-06T11:43:09.311Z,3.70
2018-10-06T11:44:09.296Z,3.70
2018-10-06T11:45:09.313Z,3.80
2018-10-06T11:46:09.278Z,3.80
2018-10-06T11:47:09.273Z,3.60
2018-10-06T11:48:09.295Z,3.90
2018-10-06T11:49:09.239Z,3.70
2018-10-06T11:50:09.286Z,3.30
2018-10-06T11:51:09.225Z,3.80
2018-10-06T11:52:09.256Z,3.60
2018-10-06T11:53:09.225Z,3.10
2018-10-06T11:54:09.191Z,3.30
2018-10-06T11:55:09.174Z,3.80
2018-10-06T11:56:09.165Z,3.60
2018-10-06T11:57:09.244Z,3.20
2018-10-06T11:58:09.144Z,3.00
2018-10-06T11:59:09.165Z,3.40
2018-10-06T12:00:09.293Z,3.40
2018-10-06T12:01:09.148Z,3.20
2018-10-06T12:02:09.113Z,3.90
2018-10-06T12:03:09.088Z,3.70
2018-10-06T12:04:09.078Z,4.10
2018-10-06T12:05:09.100Z,3.60
2018-10-06T12:06:09.085Z,3.30
2018-10-06T12:07:09.078Z,3.40
2018-10-06T12:08:09.039Z,3.50
2018-10-06T12:09:09.033Z,3.20
2018-10-06T12:10:09.022Z,3.40
2018-10-06T12:11:09.030Z,3.50
2018-10-06T12:12:09.032Z,3.30
2018-10-06T12:13:08.995Z,2.90
2018-10-06T12:14:08.969Z,3.20
2018-10-06T12:15:08.988Z,3.30
2018-10-06T12:16:08.982Z,3.10
2018-10-06T12:17:08.977Z,3.40
2018-10-06T12:18:08.944Z,3.20
2018-10-06T12:19:08.944Z,3.20
2018-10-06T12:20:08.904Z,3.10
2018-10-06T12:21:08.931Z,3.10
2018-10-06T12:22:08.925Z,2.90
2018-10-06T12:23:08.876Z,3.70
2018-10-06T12:24:08.870Z,3.00
2018-10-06T12:25:08.855Z,3.30
2018-10-06T12:26:08.916Z,3.30
2018-10-06T12:27:08.858Z,3.60
2018-10-06T12:28:08.818Z,3.80
2018-10-06T12:29:08.807Z,3.60
2018-10-06T12:30:08.814Z,3.20
2018-10-06T12:31:08.812Z,2.80
2018-10-06T12:32:08.814Z,3.20
2018-10-06T12:33:08.806Z,3.00
2018-10-06T12:34:08.757Z,3.20
2018-10-06T12:35:08.792Z,4.10
2018-10-06T12:36:08.750Z,3.70
2018-10-06T12:37:08.759Z,3.50
2018-10-06T12:38:08.708Z,3.60
2018-10-06T12:39:08.741Z,3.40
2018-10-06T12:40:08.700Z,3.00
2018-10-06T12:41:08.680Z,3.20
2018-10-06T12:42:08.743Z,3.10
2018-10-06T12:43:08.656Z,3.00
2018-10-06T12:44:08.681Z,2.90
2018-10-06T12:45:08.631Z,3.20
2018-10-06T12:46:08.623Z,2.80
2018-10-06T12:47:08.620Z,3.00
2018-10-06T12:48:08.635Z,3.10
2018-10-06T12:49:08.610Z,3.50
2018-10-06T12:50:08.574Z,3.00
2018-10-06T12:51:08.569Z,2.90
2018-10-06T12:52:08.579Z,2.70
2018-10-06T12:53:08.545Z,3.30
2018-10-06T12:54:08.543Z,2.70
2018-10-06T12:55:08.542Z,2.80
2018-10-06T12:56:08.549Z,3.10
2018-10-06T12:57:08.555Z,2.90
2018-10-06T12:58:08.491Z,2.90
2018-10-06T12:59:08.477Z,3.40
2018-10-06T13:00:08.550Z,3.10
2018-10-06T13:01:08.458Z,2.70
2018-10-06T13:02:08.480Z,3.20
2018-10-06T13:03:08.434Z,2.80
2018-10-06T13:04:08.421Z,2.60
2018-10-06T13:05:08.450Z,3.00
2018-10-06T13:06:08.502Z,2.90
2018-10-06T13:07:08.438Z,2.80
2018-10-06T13:08:08.387Z,2.80
2018-10-06T13:09:08.370Z,2.90
2018-10-06T13:10:08.356Z,2.70